Glendale, California
Current Conditions -  °F | °C
As of 1:53 PM on Saturday 20 Dec 2014 (Local Time) from KBUR Reporting Station
Clear Clear  
Wind Chill: 62°   Ceiling: Unl
Heat Index: 62°   Visibility: 10mi
Dew Point: 48°   Wind: 3mph
Humidity: 60%   Direction: 90°E
Pressure: 30.12"   Gusts: NA
Location:  34.15°N, 118.24°W
Report Text: KBUR 202153Z 09003KT 10SM CLR 17/09 A3012 RMK AO2 SLP191 T01670089
Loading
Personal Weather Stations






























Interactive Weather Map New forecast layout! Learn more

10-Day Weather Forecast

Advertisements
Track Severe Weather on mobile